Aviation Digital Data Service (ADDS)

Output produced by METARs form (0341 UTC 07 June 2020)
found at http://aviationweather.gov/metar/data/
 
TAF EPDA 070200Z 0703/0712 20005KT CAVOK 
     BECMG 0709/0712 28006KT